sensor_id;sensor_type;location;lat;lon;timestamp;pressure;altitude;pressure_sealevel;temperature
30765;BMP180;494;48.744;10.106;2023-12-22T00:00:55;94120.00;;;5.80
30765;BMP180;494;48.744;10.106;2023-12-22T00:03:26;94305.00;;;6.00
30765;BMP180;494;48.744;10.106;2023-12-22T00:06:30;94205.00;;;6.10
30765;BMP180;494;48.744;10.106;2023-12-22T00:09:03;93685.00;;;6.20
30765;BMP180;494;48.744;10.106;2023-12-22T00:11:32;94277.00;;;6.10
30765;BMP180;494;48.744;10.106;2023-12-22T00:14:01;94259.00;;;6.10
30765;BMP180;494;48.744;10.106;2023-12-22T00:16:39;94247.00;;;6.30
30765;BMP180;494;48.744;10.106;2023-12-22T00:20:04;93992.00;;;5.30
30765;BMP180;494;48.744;10.106;2023-12-22T00:23:27;93690.00;;;5.50
30765;BMP180;494;48.744;10.106;2023-12-22T00:56:01;94281.00;;;4.20
30765;BMP180;494;48.744;10.106;2023-12-22T01:35:39;93785.00;;;2.80
30765;BMP180;494;48.744;10.106;2023-12-22T01:39:06;93740.00;;;4.50
30765;BMP180;494;48.744;10.106;2023-12-22T01:42:07;94315.00;;;4.70
30765;BMP180;494;48.744;10.106;2023-12-22T01:45:11;93873.00;;;4.80
30765;BMP180;494;48.744;10.106;2023-12-22T01:48:29;94294.00;;;5.00
30765;BMP180;494;48.744;10.106;2023-12-22T01:51:50;94293.00;;;5.20
30765;BMP180;494;48.744;10.106;2023-12-22T01:55:15;94307.00;;;3.00
30765;BMP180;494;48.744;10.106;2023-12-22T01:58:16;94423.00;;;5.30
30765;BMP180;494;48.744;10.106;2023-12-22T02:01:35;93859.00;;;5.30
30765;BMP180;494;48.744;10.106;2023-12-22T02:05:21;93620.00;;;5.40
30765;BMP180;494;48.744;10.106;2023-12-22T04:58:50;93695.00;;;6.10
30765;BMP180;494;48.744;10.106;2023-12-22T05:01:41;94298.00;;;6.10
30765;BMP180;494;48.744;10.106;2023-12-22T05:04:21;93853.00;;;5.70
30765;BMP180;494;48.744;10.106;2023-12-22T05:07:03;94336.00;;;5.60
30765;BMP180;494;48.744;10.106;2023-12-22T06:26:24;93901.00;;;5.70
30765;BMP180;494;48.744;10.106;2023-12-22T09:37:28;94559.00;;;6.20
30765;BMP180;494;48.744;10.106;2023-12-22T09:40:03;94303.00;;;6.30
30765;BMP180;494;48.744;10.106;2023-12-22T09:42:32;94586.00;;;6.40
30765;BMP180;494;48.744;10.106;2023-12-22T09:45:04;94549.00;;;6.60
30765;BMP180;494;48.744;10.106;2023-12-22T09:47:35;94560.00;;;5.80
30765;BMP180;494;48.744;10.106;2023-12-22T09:50:08;94359.00;;;6.60
30765;BMP180;494;48.744;10.106;2023-12-22T09:52:43;94609.00;;;6.80
30765;BMP180;494;48.744;10.106;2023-12-22T09:55:13;94001.00;;;5.50
30765;BMP180;494;48.744;10.106;2023-12-22T09:57:45;94569.00;;;6.70
30765;BMP180;494;48.744;10.106;2023-12-22T10:00:17;94395.00;;;6.70
30765;BMP180;494;48.744;10.106;2023-12-22T10:02:47;94500.00;;;6.50
30765;BMP180;494;48.744;10.106;2023-12-22T10:05:19;94518.00;;;5.70
30765;BMP180;494;48.744;10.106;2023-12-22T10:07:54;94537.00;;;5.70
30765;BMP180;494;48.744;10.106;2023-12-22T10:10:27;94543.00;;;6.20
30765;BMP180;494;48.744;10.106;2023-12-22T10:12:59;94360.00;;;6.10
30765;BMP180;494;48.744;10.106;2023-12-22T10:15:33;94403.00;;;6.40
30765;BMP180;494;48.744;10.106;2023-12-22T10:18:05;94385.00;;;6.40
30765;BMP180;494;48.744;10.106;2023-12-22T10:20:35;94424.00;;;5.10
30765;BMP180;494;48.744;10.106;2023-12-22T10:23:07;94334.00;;;4.60
30765;BMP180;494;48.744;10.106;2023-12-22T10:26:33;94498.00;;;6.30
30765;BMP180;494;48.744;10.106;2023-12-22T10:29:36;94569.00;;;6.60
30765;BMP180;494;48.744;10.106;2023-12-22T10:37:39;94280.00;;;6.50
30765;BMP180;494;48.744;10.106;2023-12-22T10:48:57;94593.00;;;4.70
30765;BMP180;494;48.744;10.106;2023-12-22T10:51:31;94160.00;;;6.70
30765;BMP180;494;48.744;10.106;2023-12-22T10:54:06;93849.00;;;6.50
30765;BMP180;494;48.744;10.106;2023-12-22T10:56:36;93891.00;;;6.70
30765;BMP180;494;48.744;10.106;2023-12-22T10:59:18;94388.00;;;6.70
30765;BMP180;494;48.744;10.106;2023-12-22T11:02:50;94667.00;;;5.00
30765;BMP180;494;48.744;10.106;2023-12-22T11:46:33;94505.00;;;6.90
30765;BMP180;494;48.744;10.106;2023-12-22T11:49:04;93968.00;;;5.40
30765;BMP180;494;48.744;10.106;2023-12-22T11:51:33;94133.00;;;7.20
30765;BMP180;494;48.744;10.106;2023-12-22T11:54:03;94474.00;;;6.90
30765;BMP180;494;48.744;10.106;2023-12-22T11:56:35;94535.00;;;7.10
30765;BMP180;494;48.744;10.106;2023-12-22T11:59:18;94388.00;;;6.70
30765;BMP180;494;48.744;10.106;2023-12-22T12:02:04;94445.00;;;7.00
30765;BMP180;494;48.744;10.106;2023-12-22T12:04:39;94427.00;;;6.90
30765;BMP180;494;48.744;10.106;2023-12-22T12:07:44;94552.00;;;6.80
30765;BMP180;494;48.744;10.106;2023-12-22T12:10:51;94394.00;;;6.10
30765;BMP180;494;48.744;10.106;2023-12-22T12:13:51;94339.00;;;7.00
30765;BMP180;494;48.744;10.106;2023-12-22T12:16:26;94410.00;;;7.40
30765;BMP180;494;48.744;10.106;2023-12-22T12:19:08;94501.00;;;7.20
30765;BMP180;494;48.744;10.106;2023-12-22T12:21:40;94386.00;;;5.50
30765;BMP180;494;48.744;10.106;2023-12-22T12:24:20;94378.00;;;4.70
30765;BMP180;494;48.744;10.106;2023-12-22T12:27:00;94353.00;;;6.90
30765;BMP180;494;48.744;10.106;2023-12-22T12:29:41;94347.00;;;6.80
30765;BMP180;494;48.744;10.106;2023-12-22T12:32:16;93961.00;;;6.20
30765;BMP180;494;48.744;10.106;2023-12-22T12:35:04;94317.00;;;7.10
30765;BMP180;494;48.744;10.106;2023-12-22T12:37:39;94021.00;;;7.30
30765;BMP180;494;48.744;10.106;2023-12-22T12:40:24;94287.00;;;7.20
30765;BMP180;494;48.744;10.106;2023-12-22T12:43:04;94379.00;;;7.00
30765;BMP180;494;48.744;10.106;2023-12-22T12:46:04;94364.00;;;6.90
30765;BMP180;494;48.744;10.106;2023-12-22T12:49:04;94188.00;;;4.40
30765;BMP180;494;48.744;10.106;2023-12-22T12:51:44;94370.00;;;7.00
30765;BMP180;494;48.744;10.106;2023-12-22T12:54:47;94040.00;;;6.40
30765;BMP180;494;48.744;10.106;2023-12-22T12:57:55;94268.00;;;4.80
30765;BMP180;494;48.744;10.106;2023-12-22T13:01:07;93984.00;;;6.90
30765;BMP180;494;48.744;10.106;2023-12-22T13:03:58;93998.00;;;6.70
30765;BMP180;494;48.744;10.106;2023-12-22T13:06:31;93628.00;;;7.00
30765;BMP180;494;48.744;10.106;2023-12-22T13:09:45;93397.00;;;6.60
30765;BMP180;494;48.744;10.106;2023-12-22T13:12:45;94233.00;;;6.80
30765;BMP180;494;48.744;10.106;2023-12-22T13:15:48;94436.00;;;6.70
30765;BMP180;494;48.744;10.106;2023-12-22T13:18:52;94349.00;;;6.60
30765;BMP180;494;48.744;10.106;2023-12-22T13:21:45;94320.00;;;6.80
30765;BMP180;494;48.744;10.106;2023-12-22T13:24:56;93895.00;;;5.10
30765;BMP180;494;48.744;10.106;2023-12-22T19:06:35;94189.00;;;8.20
30765;BMP180;494;48.744;10.106;2023-12-22T19:09:18;94560.00;;;8.10
30765;BMP180;494;48.744;10.106;2023-12-22T19:11:52;94551.00;;;8.50
30765;BMP180;494;48.744;10.106;2023-12-22T19:16:05;94587.00;;;8.40
30765;BMP180;494;48.744;10.106;2023-12-22T19:18:08;94464.00;;;8.40
30765;BMP180;494;48.744;10.106;2023-12-22T19:20:59;94567.00;;;8.40
30765;BMP180;494;48.744;10.106;2023-12-22T20:17:17;94611.00;;;8.20
30765;BMP180;494;48.744;10.106;2023-12-22T20:19:48;94022.00;;;8.20
30765;BMP180;494;48.744;10.106;2023-12-22T20:22:27;94545.00;;;8.20
30765;BMP180;494;48.744;10.106;2023-12-22T20:25:04;94599.00;;;8.50
30765;BMP180;494;48.744;10.106;2023-12-22T20:27:38;94630.00;;;8.50
30765;BMP180;494;48.744;10.106;2023-12-22T20:30:34;94648.00;;;8.50
30765;BMP180;494;48.744;10.106;2023-12-22T20:34:59;94620.00;;;8.30
30765;BMP180;494;48.744;10.106;2023-12-22T20:38:42;93824.00;;;8.40
30765;BMP180;494;48.744;10.106;2023-12-22T20:42:10;94240.00;;;7.90
30765;BMP180;494;48.744;10.106;2023-12-22T20:46:14;94646.00;;;8.10
30765;BMP180;494;48.744;10.106;2023-12-22T21:01:47;94226.00;;;5.70
30765;BMP180;494;48.744;10.106;2023-12-22T21:04:39;94653.00;;;7.70
30765;BMP180;494;48.744;10.106;2023-12-22T23:51:00;94631.00;;;7.80
30765;BMP180;494;48.744;10.106;2023-12-22T23:57:11;94031.00;;;7.70
